Bei Facebook empfehlenBei Twitter postenGoogle plusPinterest

Das Wetter im Erzgebirge am 11.04.2016

Wetter und Klima am 11.04.2016 Holzhau im Erzgebirge (630m ü.NN)
Letzte gemessene Temperatur und Uhrzeit der Messung23:45:00 Uhr7.40 °C
Temperatur (Maximum / Höchstwert) und Uhrzeit der Messung14:30:00 Uhr10.70 °C
Temperatur (Minimum / Tiefstwert) und Uhrzeit der Messung05:30:002.90 °C
Errechneter Absolutwert der Temperaturschwankungen zwischen Tmin und Tmax des Tages7.80 K
Errechnete Tagesmitteltemperatur6.80625 °C
Gesamt - Niederschlag des Tages (in flüssiger Form)0.00 Liter / m²
Luftdruck (Maximum / Höchstwert) und Zeitpunkt der Messung00:45:00 Uhr1011.60 hPa
Luftdruck (Minimum / Tiefstwert) und Zeitpunkt der Messung23:30:00 Uhr1009.40 hPa
Errechneter Absolutwert der Luftdruckschwankungen des Tages2.20 hPa
Höchste gemessene Windgeschwindigkeit und Uhrzeit der Messung23:45:00 Uhr0.00 km/h
Errechnete Windhäufigkeit in Relation zu den Messwerten des Tages0.00000 %
Niedrigste Windkühle (Windchill) und Zeitpunkt der Messung05:30:00 Uhr2.90 °C
Taupunkt (Maximum / Höchstwert) und Uhrzeit der Messung13:00:00 Uhr7.30 °C
Taupunkt (Minimum / Tiefstwert) und Uhrzeit der Messung02:45:001.70 °C
Anzahl der automatisch eingelesenen Messwerte 96

Detaillierte Wetter- und Klima- Messwerte für den 11.04.2016 in Holzhau im Erzgebirge (630m ü.NN)
ZeitTemperaturLuftdruckRel. LuftfeuchteWindWindrichtungWindchillTaupunktNiederschlag l/m²
23:45:007.40 °C1009.50 hPa90.00 %5.90 °C 
23:30:007.40 °C1009.40 hPa90.00 %5.90 °C 
23:15:007.50 °C1009.50 hPa90.00 %6.00 °C 
23:00:007.50 °C1009.40 hPa90.00 %6.00 °C 
22:45:007.50 °C1009.50 hPa90.00 %6.00 °C 
22:30:007.60 °C1009.50 hPa89.00 %5.90 °C 
22:15:007.60 °C1009.50 hPa89.00 %5.90 °C 
22:00:007.60 °C1009.50 hPa89.00 %5.90 °C 
21:45:007.60 °C1009.60 hPa89.00 %5.90 °C 
21:30:007.60 °C1009.70 hPa89.00 %5.90 °C 
21:15:007.60 °C1009.90 hPa89.00 %5.90 °C 
21:00:007.50 °C1010.00 hPa88.00 %5.60 °C 
20:45:007.50 °C1009.70 hPa88.00 %5.60 °C 
20:30:007.60 °C1009.80 hPa88.00 %5.70 °C 
20:15:007.60 °C1009.90 hPa88.00 %5.70 °C 
20:00:007.60 °C1010.00 hPa87.00 %5.60 °C 
19:45:007.60 °C1009.80 hPa87.00 %5.60 °C 
19:30:007.80 °C1009.80 hPa87.00 %5.80 °C 
19:15:007.90 °C1009.80 hPa86.00 %5.70 °C 
19:00:008.10 °C1009.80 hPa86.00 %5.90 °C 
18:45:008.30 °C1009.80 hPa85.00 %5.90 °C 
18:30:008.40 °C1009.80 hPa85.00 %6.00 °C 
18:15:008.50 °C1009.80 hPa85.00 %6.10 °C 
18:00:008.60 °C1009.80 hPa85.00 %6.20 °C 
17:45:008.60 °C1009.80 hPa84.00 %6.10 °C 
17:30:008.60 °C1009.80 hPa84.00 %6.10 °C 
17:15:008.70 °C1009.80 hPa84.00 %6.20 °C 
17:00:008.60 °C1009.80 hPa84.00 %6.10 °C 
16:45:008.80 °C1009.80 hPa83.00 %6.10 °C 
16:30:008.90 °C1009.70 hPa82.00 %6.00 °C 
16:15:009.00 °C1009.80 hPa82.00 %6.10 °C 
16:00:009.30 °C1009.90 hPa81.00 %6.20 °C 
15:45:009.60 °C1010.20 hPa80.00 %6.30 °C 
15:30:0010.40 °C1010.00 hPa80.00 %7.10 °C 
15:15:0010.50 °C1010.00 hPa80.00 %7.20 °C 
15:00:0010.30 °C1010.30 hPa80.00 %7.00 °C 
14:45:0010.40 °C1010.40 hPa80.00 %7.10 °C 
14:30:0010.70 °C1010.40 hPa79.00 %7.20 °C 
14:15:0010.50 °C1010.40 hPa80.00 %7.20 °C 
14:00:0010.20 °C1010.50 hPa79.00 %6.70 °C 
13:45:0010.50 °C1010.70 hPa79.00 %7.00 °C 
13:30:0010.10 °C1010.60 hPa79.00 %6.60 °C 
13:15:0010.40 °C1010.70 hPa79.00 %6.90 °C 
13:00:0010.60 °C1010.80 hPa80.00 %7.30 °C 
12:45:0010.10 °C1010.90 hPa81.00 %7.00 °C 
12:30:009.90 °C1011.10 hPa82.00 %7.00 °C 
12:15:009.50 °C1011.10 hPa83.00 %6.80 °C 
12:00:009.20 °C1011.00 hPa84.00 %6.60 °C 
11:45:008.90 °C1011.20 hPa84.00 %6.30 °C 
11:30:008.40 °C1011.20 hPa84.00 %5.90 °C 
11:15:008.40 °C1011.20 hPa85.00 %6.00 °C 
11:00:007.90 °C1011.50 hPa85.00 %5.50 °C 
10:45:008.20 °C1011.40 hPa85.00 %5.80 °C 
10:30:008.30 °C1011.40 hPa85.00 %5.90 °C 
10:15:008.60 °C1011.40 hPa85.00 %6.20 °C 
10:00:008.90 °C1011.40 hPa86.00 %6.70 °C 
09:45:008.90 °C1011.20 hPa88.00 %7.00 °C 
09:30:008.40 °C1011.30 hPa89.00 %6.70 °C 
09:15:007.90 °C1011.30 hPa90.00 %6.40 °C 
09:00:007.60 °C1011.30 hPa90.00 %6.10 °C 
08:45:007.90 °C1011.30 hPa91.00 %6.50 °C 
08:30:007.30 °C1011.20 hPa92.00 %6.10 °C 
08:15:006.90 °C1011.20 hPa92.00 %5.70 °C 
08:00:006.40 °C1011.30 hPa93.00 %5.40 °C 
07:45:005.80 °C1010.90 hPa93.00 %4.80 °C 
07:30:005.40 °C1011.20 hPa93.00 %4.40 °C 
07:15:004.90 °C1011.30 hPa93.00 %3.90 °C 
07:00:004.40 °C1011.20 hPa93.00 %3.40 °C 
06:45:004.00 °C1011.30 hPa93.00 %3.00 °C 
06:30:003.60 °C1011.20 hPa93.00 %2.60 °C 
06:15:003.30 °C1011.20 hPa93.00 %2.30 °C 
06:00:003.10 °C1011.20 hPa93.00 %2.10 °C 
05:45:003.00 °C1011.10 hPa93.00 %2.00 °C 
05:30:002.90 °C1010.80 hPa93.00 %1.90 °C 
05:15:003.00 °C1011.00 hPa93.00 %2.00 °C 
05:00:003.00 °C1011.20 hPa93.00 %2.00 °C 
04:45:003.10 °C1011.20 hPa93.00 %2.10 °C 
04:30:003.00 °C1011.10 hPa93.00 %2.00 °C 
04:15:003.00 °C1011.00 hPa93.00 %2.00 °C 
04:00:003.00 °C1011.10 hPa93.00 %2.00 °C 
03:45:002.90 °C1011.10 hPa93.00 %1.90 °C 
03:30:002.90 °C1011.00 hPa93.00 %1.90 °C 
03:15:002.90 °C1011.10 hPa93.00 %1.90 °C 
03:00:002.90 °C1011.20 hPa93.00 %1.90 °C 
02:45:002.90 °C1011.20 hPa92.00 %1.70 °C 
02:30:002.90 °C1011.30 hPa92.00 %1.70 °C 
02:15:002.90 °C1011.30 hPa92.00 %1.70 °C 
02:00:002.90 °C1011.30 hPa92.00 %1.70 °C 
01:45:002.90 °C1011.10 hPa92.00 %1.70 °C 
01:30:002.90 °C1011.30 hPa92.00 %1.70 °C 
01:15:002.90 °C1011.50 hPa92.00 %1.70 °C 
01:00:002.90 °C1011.50 hPa92.00 %1.70 °C 
00:45:002.90 °C1011.60 hPa92.00 %1.70 °C 
00:30:003.00 °C1011.40 hPa92.00 %1.80 °C 
00:15:003.00 °C1011.40 hPa92.00 %1.80 °C 
00:00:003.00 °C1011.50 hPa92.00 %1.80 °C 

Permanenter Link zu dieser Seite: Wetter im Erzgebirge am 11.04.2016
Performance-Info: Die Erstellung der Seite / Statistik(en) / Tabelle(n) erforderte 5 Datenbankserver-Abfrage(n) und dauerte 124 Millisekunden. (Dieser Messwert ist von der Gesamt-Auslastung des Servers abhängig.)
Erzgebirge - Wetter | Erzgebirge - Wetter (Mobilgeräte) | Komplette Klimadatenbank